createdAt,value
2022-08-07T06:36:12.765Z,70.10
2022-08-07T06:38:59.063Z,70.10
2022-08-07T06:42:02.251Z,69.20
2022-08-07T06:44:57.725Z,69.60
2022-08-07T06:47:27.150Z,69.70
2022-08-07T06:49:58.767Z,69.50
2022-08-07T06:52:36.993Z,68.90
2022-08-07T06:55:31.287Z,68.60
2022-08-07T06:58:10.305Z,68.40
2022-08-07T07:00:47.222Z,67.30
2022-08-07T07:03:39.614Z,67.20
2022-08-07T07:06:11.563Z,67.20
2022-08-07T07:08:39.935Z,67.10
2022-08-07T07:12:08.552Z,67.00
2022-08-07T07:14:08.558Z,67.00
2022-08-07T07:16:49.582Z,66.80
2022-08-07T07:19:56.023Z,66.60
2022-08-07T07:22:36.093Z,66.40
2022-08-07T07:26:30.694Z,66.50
2022-08-07T07:28:42.369Z,65.80
2022-08-07T07:31:05.731Z,65.60
2022-08-07T07:33:36.488Z,65.60
2022-08-07T07:36:12.851Z,65.20
2022-08-07T07:38:45.914Z,65.20
2022-08-07T07:41:17.701Z,65.50
2022-08-07T07:44:14.568Z,65.60
2022-08-07T07:46:54.711Z,65.70
2022-08-07T07:50:33.286Z,65.30
2022-08-07T07:52:17.824Z,65.40
2022-08-07T07:54:51.494Z,65.50
2022-08-07T07:57:44.008Z,65.20
2022-08-07T08:00:20.728Z,64.80
2022-08-07T08:03:05.020Z,63.40
2022-08-07T08:05:50.834Z,63.00
2022-08-07T08:08:36.315Z,62.50
2022-08-07T08:11:16.432Z,62.10
2022-08-07T08:13:57.992Z,61.50
2022-08-07T08:16:37.874Z,60.40
2022-08-07T08:20:15.982Z,59.50
2022-08-07T08:22:17.939Z,58.40
2022-08-07T08:25:24.943Z,57.10
2022-08-07T08:28:03.525Z,57.30
2022-08-07T08:30:37.426Z,56.80
2022-08-07T08:33:17.019Z,55.50
2022-08-07T08:35:50.922Z,55.30
2022-08-07T08:38:25.777Z,55.10
2022-08-07T08:44:31.372Z,54.30
2022-08-07T08:47:17.221Z,53.40
2022-08-07T08:50:18.991Z,53.50
2022-08-07T09:05:05.021Z,51.00
2022-08-07T09:07:58.159Z,49.70
2022-08-07T09:10:45.153Z,49.80
2022-08-07T09:13:38.025Z,49.80
2022-08-07T09:19:50.577Z,49.80
2022-08-07T09:24:33.686Z,48.70
2022-08-07T09:26:22.638Z,49.90
2022-08-07T09:30:06.491Z,47.60
2022-08-07T09:32:05.904Z,47.90
2022-08-07T09:35:04.739Z,48.30
2022-08-07T09:38:10.304Z,48.20
2022-08-07T09:41:09.589Z,48.10
2022-08-07T09:47:42.712Z,48.00
2022-08-07T09:50:19.024Z,47.50
2022-08-07T09:53:08.581Z,46.80
2022-08-07T09:56:39.181Z,47.20
2022-08-07T10:03:08.511Z,47.30
2022-08-07T10:06:49.230Z,46.30
2022-08-07T10:10:03.331Z,44.80
2022-08-07T10:12:52.665Z,45.70
2022-08-07T10:19:37.600Z,44.10
2022-08-07T10:22:24.900Z,44.90
2022-08-07T10:28:56.472Z,43.60
2022-08-07T10:31:53.092Z,43.00
2022-08-07T10:35:01.653Z,43.30
2022-08-07T10:38:35.409Z,43.80
2022-08-07T10:41:47.193Z,42.60
2022-08-07T10:44:40.389Z,42.30
2022-08-07T10:47:58.697Z,42.70
2022-08-07T10:50:49.808Z,41.80
2022-08-07T10:53:57.173Z,43.00
2022-08-07T10:57:13.994Z,42.10
2022-08-07T11:00:36.220Z,41.80
2022-08-07T11:03:16.266Z,41.40
2022-08-07T11:06:18.331Z,41.70
2022-08-07T11:10:09.100Z,40.90
2022-08-07T11:12:32.227Z,41.00
2022-08-07T11:15:17.228Z,40.80
2022-08-07T11:18:27.547Z,40.20
2022-08-07T11:38:21.316Z,37.30
2022-08-07T11:44:18.944Z,35.10
2022-08-07T11:47:19.759Z,36.20
2022-08-07T11:54:00.547Z,34.50
2022-08-07T12:00:11.550Z,33.60
2022-08-07T12:03:41.471Z,33.70
2022-08-07T12:07:08.041Z,34.60
2022-08-07T12:10:07.745Z,34.90
2022-08-07T12:16:05.914Z,34.20
2022-08-07T12:19:04.785Z,34.20
2022-08-07T12:22:39.445Z,35.30
2022-08-07T12:34:49.641Z,34.20
2022-08-07T12:38:09.450Z,34.10
2022-08-07T12:43:12.163Z,33.40
2022-08-07T12:46:43.327Z,32.80
2022-08-07T12:50:04.745Z,34.10
2022-08-07T12:53:18.911Z,33.70
2022-08-07T12:56:03.400Z,33.00
2022-08-07T12:58:40.317Z,33.10
2022-08-07T13:01:32.057Z,31.70
2022-08-07T13:04:32.489Z,32.70
2022-08-07T13:08:12.065Z,32.90
2022-08-07T13:11:25.940Z,30.00
2022-08-07T13:14:09.530Z,29.50
2022-08-07T13:23:59.946Z,30.80
2022-08-07T13:31:57.161Z,29.50
2022-08-07T13:37:58.927Z,27.10
2022-08-07T13:40:43.212Z,27.20
2022-08-07T13:43:15.366Z,27.70
2022-08-07T13:46:21.903Z,27.60
2022-08-07T13:48:59.615Z,29.20
2022-08-07T13:52:22.634Z,28.50
2022-08-07T13:54:22.652Z,26.90
2022-08-07T13:56:59.688Z,27.70
2022-08-07T13:59:33.375Z,25.80
2022-08-07T14:02:13.219Z,26.30
2022-08-07T14:04:54.835Z,26.40
2022-08-07T14:07:30.642Z,26.00
2022-08-07T14:10:21.943Z,27.20
2022-08-07T14:13:01.344Z,27.80
2022-08-07T14:15:37.567Z,25.90
2022-08-07T14:18:28.463Z,25.20
2022-08-07T14:21:21.071Z,24.90
2022-08-07T14:24:08.858Z,25.50
2022-08-07T14:28:09.805Z,25.20
2022-08-07T14:30:11.218Z,24.80
2022-08-07T14:32:57.992Z,24.50
2022-08-07T14:35:44.814Z,25.30
2022-08-07T14:38:26.565Z,24.90
2022-08-07T14:41:12.325Z,25.20
2022-08-07T14:46:36.424Z,24.30
2022-08-07T14:54:54.083Z,25.40
2022-08-07T14:57:54.385Z,25.30
2022-08-07T15:00:29.608Z,25.30
2022-08-07T15:03:19.324Z,25.70
2022-08-07T15:08:49.719Z,26.20
2022-08-07T15:11:53.575Z,26.00
2022-08-07T15:14:22.371Z,26.20
2022-08-07T15:17:01.218Z,25.90
2022-08-07T15:20:30.931Z,25.70
2022-08-07T15:25:39.555Z,25.60
2022-08-07T15:28:34.651Z,26.10
2022-08-07T15:31:05.703Z,25.20
2022-08-07T15:33:38.545Z,25.00
2022-08-07T15:36:11.809Z,25.30
2022-08-07T15:42:43.459Z,25.40
2022-08-07T15:44:23.736Z,25.40
2022-08-07T15:52:44.448Z,26.10
2022-08-07T15:55:23.242Z,25.60
2022-08-07T15:58:20.905Z,26.30
2022-08-07T16:00:50.785Z,25.70
2022-08-07T16:03:47.074Z,25.90
2022-08-07T16:06:14.121Z,25.90
2022-08-07T16:08:46.455Z,25.60
2022-08-07T16:12:00.414Z,26.20
2022-08-07T16:14:59.310Z,26.00
2022-08-07T16:18:50.078Z,25.80
2022-08-07T16:22:02.170Z,26.30
2022-08-07T16:24:38.073Z,26.20
2022-08-07T16:27:27.137Z,26.30
2022-08-07T16:30:30.459Z,26.40
2022-08-07T16:34:03.082Z,26.40
2022-08-07T16:37:01.896Z,26.60
2022-08-07T16:39:48.768Z,26.70
2022-08-07T16:42:26.324Z,26.30
2022-08-07T16:48:31.912Z,27.00
2022-08-07T16:51:54.307Z,26.60
2022-08-07T16:54:54.112Z,26.50
2022-08-07T16:58:02.479Z,26.90
2022-08-07T17:00:42.319Z,27.60
2022-08-07T17:03:58.196Z,26.80
2022-08-07T17:06:58.187Z,27.00
2022-08-07T17:10:32.318Z,27.00
2022-08-07T17:13:41.768Z,27.40
2022-08-07T17:16:39.365Z,27.40
2022-08-07T17:20:01.109Z,27.20
2022-08-07T17:23:17.126Z,27.30
2022-08-07T17:26:22.535Z,28.20
2022-08-07T17:30:14.387Z,27.80
2022-08-07T17:32:36.584Z,27.80
2022-08-07T17:35:51.119Z,27.70
2022-08-07T17:38:52.431Z,27.70
2022-08-07T17:42:02.740Z,28.10
2022-08-07T17:44:51.712Z,28.00
2022-08-07T17:47:53.924Z,28.40
2022-08-07T17:50:46.936Z,28.20
2022-08-07T17:54:06.420Z,28.30
2022-08-07T17:59:35.441Z,28.30
2022-08-07T18:12:16.662Z,28.80
2022-08-07T18:18:39.715Z,29.00
2022-08-07T18:24:12.546Z,29.20
2022-08-07T18:30:33.096Z,29.50
2022-08-07T18:37:09.218Z,29.50
2022-08-07T18:40:38.583Z,29.80
2022-08-07T18:43:11.242Z,29.70
2022-08-07T18:46:21.948Z,29.70
2022-08-07T18:50:30.925Z,29.90
2022-08-07T18:52:35.400Z,30.10
2022-08-07T18:55:43.068Z,30.40
2022-08-07T18:58:51.209Z,30.90
2022-08-07T19:02:19.257Z,31.90
2022-08-07T19:05:15.963Z,32.50
2022-08-07T19:08:05.348Z,33.10
2022-08-07T19:10:51.709Z,33.60
2022-08-07T19:13:27.461Z,34.00
2022-08-07T19:17:01.438Z,34.20
2022-08-07T19:19:41.387Z,34.50
2022-08-07T19:22:34.709Z,34.70
2022-08-07T19:25:07.537Z,35.00
2022-08-07T19:28:57.313Z,35.10
2022-08-07T19:31:05.332Z,35.20
2022-08-07T19:33:33.582Z,35.40
2022-08-07T19:36:04.853Z,35.70
2022-08-07T19:38:52.937Z,35.60
2022-08-07T19:41:44.149Z,35.80
2022-08-07T19:44:31.324Z,35.90
2022-08-07T19:47:11.557Z,36.10
2022-08-07T19:49:56.761Z,36.40
2022-08-07T19:52:28.824Z,36.50
2022-08-07T19:54:58.371Z,36.60
2022-08-07T19:58:01.300Z,36.70
2022-08-07T20:03:33.544Z,37.10
2022-08-07T20:08:51.958Z,37.20
2022-08-07T20:11:34.105Z,37.30
2022-08-07T20:14:21.030Z,37.50
2022-08-07T20:16:54.362Z,37.70
2022-08-07T20:19:28.947Z,37.80
2022-08-07T20:22:28.934Z,37.90
2022-08-07T20:28:05.767Z,38.90
2022-08-07T20:30:46.759Z,38.50
2022-08-07T20:39:00.868Z,39.00
2022-08-07T20:41:44.879Z,39.10
2022-08-07T20:52:24.615Z,39.80
2022-08-07T20:55:12.617Z,39.90
2022-08-07T20:58:00.153Z,39.70
2022-08-07T21:04:07.218Z,40.10
2022-08-07T21:06:36.801Z,40.10
2022-08-07T21:09:13.943Z,40.50
2022-08-07T21:11:50.514Z,40.70
2022-08-07T21:14:33.817Z,41.10
2022-08-07T21:18:05.699Z,41.20
2022-08-07T21:20:04.649Z,41.50
2022-08-07T21:22:45.159Z,41.60
2022-08-07T21:25:57.011Z,41.80
2022-08-07T21:28:55.509Z,42.20
2022-08-07T21:32:47.132Z,42.40
2022-08-07T21:35:12.523Z,42.70
2022-08-07T21:38:44.567Z,42.70
2022-08-07T21:41:52.288Z,42.70
2022-08-07T21:44:59.546Z,43.00
2022-08-07T21:48:07.038Z,43.10
2022-08-07T21:51:25.093Z,43.10
2022-08-07T21:54:04.538Z,43.40
2022-08-07T21:57:07.952Z,43.20
2022-08-07T22:00:05.442Z,43.00
2022-08-07T22:03:16.541Z,42.90
2022-08-07T22:06:07.962Z,43.50
2022-08-07T22:09:02.800Z,44.20
2022-08-07T22:12:05.286Z,44.80
2022-08-07T22:14:59.242Z,44.00
2022-08-07T22:17:36.870Z,45.00
2022-08-07T22:20:34.362Z,45.60
2022-08-07T22:23:40.493Z,46.00
2022-08-07T22:26:26.886Z,46.20
2022-08-07T22:29:08.866Z,46.10
2022-08-07T22:32:10.676Z,45.80
2022-08-07T22:34:53.462Z,46.00
2022-08-07T22:38:04.490Z,46.70
2022-08-07T22:40:48.919Z,47.00
2022-08-07T22:43:27.886Z,46.80
2022-08-07T22:46:47.253Z,47.10
2022-08-07T22:49:59.668Z,47.50
2022-08-07T22:53:15.353Z,47.90
2022-08-07T22:55:59.565Z,48.10
2022-08-07T22:58:37.768Z,48.30
2022-08-07T23:01:52.973Z,48.50
2022-08-07T23:04:57.892Z,48.90
2022-08-07T23:07:42.136Z,49.10
2022-08-07T23:10:56.312Z,49.40
2022-08-07T23:14:24.773Z,49.60
2022-08-07T23:17:41.825Z,49.60
2022-08-07T23:20:40.763Z,49.90
2022-08-07T23:24:04.973Z,49.50
2022-08-07T23:26:19.294Z,49.30
2022-08-07T23:29:16.595Z,49.40
2022-08-07T23:34:18.889Z,49.90
2022-08-07T23:35:24.154Z,50.40
2022-08-07T23:38:42.288Z,50.80
2022-08-07T23:42:01.485Z,50.60
2022-08-07T23:45:15.331Z,50.60
2022-08-07T23:48:47.090Z,51.30
2022-08-07T23:52:59.451Z,51.30
2022-08-07T23:54:46.809Z,51.50
2022-08-07T23:57:41.713Z,51.50
